Time,TemperatureF,DewpointF,PressureIn,WindDirection,WindDirectionDegrees,WindSpeedMPH,WindSpeedGustMPH,Humidity,HourlyPrecipIn,Conditions,Clouds,dailyrainin,SoftwareType,DateUTC
2013-06-25 00:06:00,67.6,67.0,30.01,NW,309,0.0,0.0,99,0.00,,,0.00,weatherlink.com 1.10,2013-06-25 04:06:00,
2013-06-25 00:21:00,67.7,67.0,30.01,NW,309,0.0,0.0,99,0.00,,,0.00,weatherlink.com 1.10,2013-06-25 04:21:00,
2013-06-25 00:36:00,67.8,68.0,30.02,NW,309,0.0,0.0,99,0.00,,,0.00,weatherlink.com 1.10,2013-06-25 04:36:00,
2013-06-25 00:51:00,67.8,68.0,30.00,NW,309,0.0,0.0,99,0.00,,,0.00,weatherlink.com 1.10,2013-06-25 04:51:00,
2013-06-25 01:06:00,67.7,67.0,30.00,NW,309,0.0,0.0,99,0.00,,,0.00,weatherlink.com 1.10,2013-06-25 05:06:00,
2013-06-25 01:21:00,67.6,67.0,30.00,NW,309,0.0,0.0,99,0.00,,,0.00,weatherlink.com 1.10,2013-06-25 05:21:00,
2013-06-25 01:36:00,67.5,67.0,29.99,NW,309,0.0,0.0,99,0.00,,,0.00,weatherlink.com 1.10,2013-06-25 05:36:00,
2013-06-25 01:51:00,67.3,67.0,29.98,SSW,200,0.0,0.0,98,0.00,,,0.00,weatherlink.com 1.10,2013-06-25 05:51:00,
2013-06-25 02:06:00,67.1,67.0,29.98,SSW,201,0.0,1.0,98,0.00,,,0.00,weatherlink.com 1.10,2013-06-25 06:06:00,
2013-06-25 02:21:00,66.8,66.0,29.98,SSW,201,0.0,1.0,98,0.00,,,0.00,weatherlink.com 1.10,2013-06-25 06:21:00,
2013-06-25 02:36:00,66.5,66.0,29.98,SSW,200,0.0,0.0,98,0.00,,,0.00,weatherlink.com 1.10,2013-06-25 06:36:00,
2013-06-25 02:51:00,66.1,66.0,29.97,SSW,200,0.0,0.0,98,0.00,,,0.00,weatherlink.com 1.10,2013-06-25 06:51:00,
2013-06-25 03:06:00,65.9,65.0,29.96,SSW,200,0.0,0.0,98,0.00,,,0.00,weatherlink.com 1.10,2013-06-25 07:06:00,
2013-06-25 03:21:00,65.6,65.0,29.96,SSW,201,0.0,0.0,99,0.00,,,0.00,weatherlink.com 1.10,2013-06-25 07:21:00,
2013-06-25 03:36:00,65.3,65.0,29.96,SSW,200,0.0,0.0,99,0.00,,,0.00,weatherlink.com 1.10,2013-06-25 07:36:00,
2013-06-25 03:51:00,64.9,65.0,29.96,SSW,203,0.0,0.0,99,0.00,,,0.00,weatherlink.com 1.10,2013-06-25 07:51:00,
2013-06-25 04:06:00,64.7,64.0,29.95,SSW,203,0.0,0.0,99,0.00,,,0.00,weatherlink.com 1.10,2013-06-25 08:06:00,
2013-06-25 04:21:00,64.4,64.0,29.96,SSW,200,0.0,0.0,99,0.00,,,0.00,weatherlink.com 1.10,2013-06-25 08:21:00,
2013-06-25 04:36:00,64.2,64.0,29.96,SSW,200,0.0,0.0,99,0.00,,,0.00,weatherlink.com 1.10,2013-06-25 08:36:00,
2013-06-25 04:51:00,64.2,64.0,29.96,SSW,200,0.0,0.0,99,0.00,,,0.00,weatherlink.com 1.10,2013-06-25 08:51:00,
2013-06-25 05:06:00,64.1,64.0,29.96,SSW,200,0.0,0.0,99,0.00,,,0.00,weatherlink.com 1.10,2013-06-25 09:06:00,
2013-06-25 05:21:00,63.9,64.0,29.96,SSW,203,0.0,0.0,99,0.00,,,0.00,weatherlink.com 1.10,2013-06-25 09:21:00,
2013-06-25 05:36:00,63.7,64.0,29.96,SSW,203,0.0,0.0,99,0.00,,,0.00,weatherlink.com 1.10,2013-06-25 09:36:00,
2013-06-25 05:51:00,63.5,63.0,29.96,SSW,203,0.0,0.0,99,0.00,,,0.00,weatherlink.com 1.10,2013-06-25 09:51:00,
2013-06-25 06:06:00,63.4,63.0,29.96,SSW,203,0.0,0.0,99,0.00,,,0.00,weatherlink.com 1.10,2013-06-25 10:06:00,
2013-06-25 06:21:00,63.7,64.0,29.96,SSW,203,0.0,0.0,99,0.00,,,0.00,weatherlink.com 1.10,2013-06-25 10:21:00,
2013-06-25 06:36:00,64.0,64.0,29.97,SSW,203,0.0,0.0,100,0.00,,,0.00,weatherlink.com 1.10,2013-06-25 10:36:00,
2013-06-25 06:51:00,64.6,65.0,29.96,SSW,203,0.0,0.0,100,0.00,,,0.00,weatherlink.com 1.10,2013-06-25 10:51:00,
2013-06-25 07:06:00,65.2,65.0,29.96,SSW,200,0.0,0.0,100,0.00,,,0.00,weatherlink.com 1.10,2013-06-25 11:06:00,
2013-06-25 07:21:00,65.5,65.0,29.96,SSW,200,0.0,0.0,99,0.00,,,0.00,weatherlink.com 1.10,2013-06-25 11:21:00,
2013-06-25 07:36:00,66.1,66.0,29.96,SSW,200,0.0,0.0,99,0.00,,,0.00,weatherlink.com 1.10,2013-06-25 11:36:00,
2013-06-25 07:51:00,66.9,66.0,29.96,SSW,200,0.0,0.0,98,0.00,,,0.00,weatherlink.com 1.10,2013-06-25 11:51:00,
2013-06-25 08:06:00,67.6,67.0,29.96,South,181,0.0,1.0,96,0.00,,,0.00,weatherlink.com 1.10,2013-06-25 12:06:00,
2013-06-25 08:21:00,68.6,67.0,29.95,South,181,0.0,1.0,94,0.00,,,0.00,weatherlink.com 1.10,2013-06-25 12:21:00,
2013-06-25 08:37:00,69.8,68.0,29.96,South,176,0.0,0.0,93,0.00,,,0.00,weatherlink.com 1.10,2013-06-25 12:37:00,
2013-06-25 08:52:00,71.0,68.0,29.95,South,176,0.0,0.0,91,0.00,,,0.00,weatherlink.com 1.10,2013-06-25 12:52:00,
2013-06-25 09:07:00,72.2,69.0,29.95,South,176,0.0,0.0,90,0.00,,,0.00,weatherlink.com 1.10,2013-06-25 13:07:00,
2013-06-25 09:22:00,73.6,70.0,29.95,South,188,0.0,1.0,89,0.00,,,0.00,weatherlink.com 1.10,2013-06-25 13:22:00,
2013-06-25 09:37:00,75.1,71.0,29.94,South,188,0.0,1.0,87,0.00,,,0.00,weatherlink.com 1.10,2013-06-25 13:37:00,
2013-06-25 09:52:00,76.4,71.0,29.94,South,183,0.0,1.0,84,0.00,,,0.00,weatherlink.com 1.10,2013-06-25 13:52:00,
2013-06-25 10:08:00,77.3,71.0,29.94,ESE,103,0.0,1.0,81,0.00,,,0.00,weatherlink.com 1.10,2013-06-25 14:08:00,
2013-06-25 10:22:00,78.4,73.0,29.94,ESE,103,1.0,1.0,83,0.00,,,0.00,weatherlink.com 1.10,2013-06-25 14:22:00,
2013-06-25 10:37:00,79.4,73.0,29.94,SSE,150,0.0,1.0,81,0.00,,,0.00,weatherlink.com 1.10,2013-06-25 14:37:00,
2013-06-25 10:52:00,80.9,73.0,29.94,WSW,256,0.0,1.0,77,0.00,,,0.00,weatherlink.com 1.10,2013-06-25 14:52:00,
2013-06-25 11:07:00,82.0,74.0,29.93,SSE,150,0.0,1.0,76,0.00,,,0.00,weatherlink.com 1.10,2013-06-25 15:07:00,
2013-06-25 11:22:00,83.9,76.0,29.93,South,174,0.0,1.0,77,0.00,,,0.00,weatherlink.com 1.10,2013-06-25 15:22:00,
2013-06-25 11:37:00,85.6,77.0,29.92,SSE,153,0.0,1.0,75,0.00,,,0.00,weatherlink.com 1.10,2013-06-25 15:37:00,
2013-06-25 11:52:00,87.1,77.0,29.92,NNW,329,0.0,2.0,71,0.00,,,0.00,weatherlink.com 1.10,2013-06-25 15:52:00,
2013-06-25 12:07:00,87.9,76.0,29.91,SE,141,0.0,1.0,67,0.00,,,0.00,weatherlink.com 1.10,2013-06-25 16:07:00,
2013-06-25 12:22:00,88.8,77.0,29.90,SSW,194,0.0,2.0,68,0.00,,,0.00,weatherlink.com 1.10,2013-06-25 16:22:00,
2013-06-25 12:38:00,89.0,75.0,29.89,NE,38,0.0,1.0,63,0.00,,,0.00,weatherlink.com 1.10,2013-06-25 16:38:00,
2013-06-25 12:53:00,89.6,73.0,29.88,NNE,23,1.0,3.0,59,0.00,,,0.00,weatherlink.com 1.10,2013-06-25 16:53:00,
2013-06-25 13:08:00,90.1,74.0,29.87,SW,219,1.0,2.0,60,0.00,,,0.00,weatherlink.com 1.10,2013-06-25 17:08:00,
2013-06-25 13:23:00,90.8,74.0,29.87,NW,304,1.0,3.0,59,0.00,,,0.00,weatherlink.com 1.10,2013-06-25 17:23:00,
2013-06-25 13:38:00,90.8,74.0,29.86,NNE,12,2.0,3.0,58,0.00,,,0.00,weatherlink.com 1.10,2013-06-25 17:38:00,
2013-06-25 13:53:00,90.7,74.0,29.86,SE,135,1.0,2.0,59,0.00,,,0.00,weatherlink.com 1.10,2013-06-25 17:53:00,
2013-06-25 14:08:00,91.6,73.0,29.85,SW,214,0.0,4.0,54,0.00,,,0.00,weatherlink.com 1.10,2013-06-25 18:08:00,
2013-06-25 14:23:00,92.2,73.0,29.84,SE,143,1.0,3.0,53,0.00,,,0.00,weatherlink.com 1.10,2013-06-25 18:23:00,
2013-06-25 14:38:00,91.0,70.0,29.84,NNE,12,0.0,3.0,51,0.00,,,0.00,weatherlink.com 1.10,2013-06-25 18:38:00,
2013-06-25 14:53:00,89.0,70.0,29.83,NW,306,0.0,3.0,54,0.00,,,0.00,weatherlink.com 1.10,2013-06-25 18:53:00,
2013-06-25 15:08:00,87.1,72.0,29.83,NNW,330,0.0,2.0,61,0.00,,,0.00,weatherlink.com 1.10,2013-06-25 19:08:00,
2013-06-25 15:23:00,85.9,71.0,29.83,West,273,1.0,3.0,62,0.00,,,0.00,weatherlink.com 1.10,2013-06-25 19:23:00,
2013-06-25 15:38:00,86.0,73.0,29.82,SSE,150,0.0,2.0,66,0.00,,,0.00,weatherlink.com 1.10,2013-06-25 19:38:00,
2013-06-25 15:53:00,86.8,76.0,29.82,SW,215,0.0,2.0,70,0.00,,,0.00,weatherlink.com 1.10,2013-06-25 19:53:00,
2013-06-25 16:08:00,86.9,75.0,29.82,South,186,0.0,2.0,67,0.00,,,0.00,weatherlink.com 1.10,2013-06-25 20:08:00,
2013-06-25 16:23:00,84.6,72.0,29.81,ESE,103,1.0,2.0,66,0.00,,,0.00,weatherlink.com 1.10,2013-06-25 20:23:00,
2013-06-25 16:38:00,82.6,71.0,29.82,WNW,295,0.0,5.0,68,0.00,,,0.00,weatherlink.com 1.10,2013-06-25 20:38:00,
2013-06-25 16:53:00,81.4,71.0,29.81,WNW,300,0.0,2.0,70,0.00,,,0.00,weatherlink.com 1.10,2013-06-25 20:53:00,
2013-06-25 17:08:00,81.9,72.0,29.80,NE,46,1.0,1.0,72,0.00,,,0.00,weatherlink.com 1.10,2013-06-25 21:08:00,
2013-06-25 17:23:00,82.5,73.0,29.80,WNW,287,0.0,2.0,73,0.00,,,0.00,weatherlink.com 1.10,2013-06-25 21:23:00,
2013-06-25 17:38:00,81.9,74.0,29.79,SE,141,2.0,3.0,76,0.00,,,0.00,weatherlink.com 1.10,2013-06-25 21:38:00,
2013-06-25 17:53:00,81.7,73.0,29.79,NNE,27,0.0,3.0,75,0.00,,,0.00,weatherlink.com 1.10,2013-06-25 21:53:00,
2013-06-25 18:08:00,81.5,74.0,29.80,North,4,0.0,1.0,78,0.00,,,0.00,weatherlink.com 1.10,2013-06-25 22:08:00,
2013-06-25 18:23:00,80.6,74.0,29.80,North,4,0.0,0.0,81,0.00,,,0.00,weatherlink.com 1.10,2013-06-25 22:23:00,
2013-06-25 18:38:00,80.3,74.0,29.80,NNW,342,0.0,1.0,81,0.00,,,0.00,weatherlink.com 1.10,2013-06-25 22:38:00,
2013-06-25 18:53:00,80.3,74.0,29.80,North,352,0.0,1.0,81,0.00,,,0.00,weatherlink.com 1.10,2013-06-25 22:53:00,
2013-06-25 19:08:00,80.5,74.0,29.80,North,351,0.0,0.0,80,0.00,,,0.00,weatherlink.com 1.10,2013-06-25 23:08:00,
2013-06-25 19:23:00,80.5,74.0,29.80,North,352,0.0,0.0,80,0.00,,,0.00,weatherlink.com 1.10,2013-06-25 23:23:00,
2013-06-25 19:38:00,80.4,74.0,29.80,North,352,0.0,0.0,81,0.00,,,0.00,weatherlink.com 1.10,2013-06-25 23:38:00,
2013-06-25 19:53:00,80.0,74.0,29.80,North,351,0.0,0.0,83,0.00,,,0.00,weatherlink.com 1.10,2013-06-25 23:53:00,
2013-06-25 20:08:00,79.2,74.0,29.80,North,352,0.0,0.0,85,0.00,,,0.00,weatherlink.com 1.10,2013-06-26 00:08:00,
2013-06-25 20:23:00,78.3,74.0,29.81,North,351,0.0,0.0,86,0.00,,,0.00,weatherlink.com 1.10,2013-06-26 00:23:00,
2013-06-25 20:38:00,77.1,73.0,29.81,North,351,0.0,0.0,88,0.00,,,0.00,weatherlink.com 1.10,2013-06-26 00:38:00,
2013-06-25 20:53:00,76.2,73.0,29.81,North,1,0.0,1.0,89,0.00,,,0.00,weatherlink.com 1.10,2013-06-26 00:53:00,
2013-06-25 21:08:00,75.5,73.0,29.81,North,360,0.0,1.0,90,0.00,,,0.00,weatherlink.com 1.10,2013-06-26 01:08:00,
2013-06-25 21:23:00,74.7,72.0,29.81,North,360,0.0,1.0,91,0.00,,,0.00,weatherlink.com 1.10,2013-06-26 01:23:00,
2013-06-25 21:38:00,74.4,72.0,29.81,North,360,0.0,0.0,91,0.00,,,0.00,weatherlink.com 1.10,2013-06-26 01:38:00,
2013-06-25 21:53:00,74.1,71.0,29.82,North,360,0.0,0.0,91,0.00,,,0.00,weatherlink.com 1.10,2013-06-26 01:53:00,
2013-06-25 22:08:00,73.8,71.0,29.82,North,360,0.0,0.0,92,0.00,,,0.00,weatherlink.com 1.10,2013-06-26 02:08:00,
2013-06-25 22:23:00,73.4,71.0,29.82,North,359,0.0,0.0,92,0.00,,,0.00,weatherlink.com 1.10,2013-06-26 02:23:00,
2013-06-25 22:38:00,72.9,71.0,29.82,North,360,0.0,0.0,93,0.00,,,0.00,weatherlink.com 1.10,2013-06-26 02:38:00,
2013-06-25 22:53:00,72.7,71.0,29.82,North,360,0.0,0.0,93,0.00,,,0.00,weatherlink.com 1.10,2013-06-26 02:53:00,
2013-06-25 23:08:00,72.4,70.0,29.81,North,360,0.0,0.0,93,0.00,,,0.00,weatherlink.com 1.10,2013-06-26 03:08:00,
2013-06-25 23:23:00,72.3,70.0,29.82,North,360,0.0,0.0,93,0.00,,,0.00,weatherlink.com 1.10,2013-06-26 03:23:00,
2013-06-25 23:38:00,72.2,70.0,29.82,North,360,0.0,0.0,93,0.00,,,0.00,weatherlink.com 1.10,2013-06-26 03:38:00,
2013-06-25 23:53:00,71.9,70.0,29.82,North,359,0.0,0.0,94,0.00,,,0.00,weatherlink.com 1.10,2013-06-26 03:53:00,